createdAt,value
2022-11-17T00:00:13.683Z,8.07
2022-11-17T00:02:40.439Z,8.68
2022-11-17T00:05:07.621Z,8.50
2022-11-17T00:07:34.699Z,10.57
2022-11-17T00:10:01.582Z,8.85
2022-11-17T00:12:47.007Z,8.80
2022-11-17T00:15:13.641Z,9.13
2022-11-17T00:17:40.297Z,8.93
2022-11-17T00:20:26.636Z,8.20
2022-11-17T00:22:53.278Z,10.30
2022-11-17T00:25:19.913Z,9.57
2022-11-17T00:27:46.603Z,8.32
2022-11-17T00:30:33.741Z,12.82
2022-11-17T00:33:22.167Z,9.20
2022-11-17T00:35:54.145Z,7.68
2022-11-17T00:38:20.877Z,9.25
2022-11-17T00:40:47.552Z,10.85
2022-11-17T00:43:14.415Z,9.85
2022-11-17T00:45:41.681Z,10.02
2022-11-17T00:48:08.600Z,10.70
2022-11-17T00:50:35.619Z,12.57
2022-11-17T00:53:02.276Z,11.10
2022-11-17T00:55:29.172Z,11.57
2022-11-17T00:57:56.153Z,11.18
2022-11-17T01:00:23.655Z,12.40
2022-11-17T01:02:50.398Z,10.90
2022-11-17T01:05:17.618Z,8.45
2022-11-17T01:07:44.442Z,10.45
2022-11-17T01:10:11.169Z,10.63
2022-11-17T01:12:37.887Z,13.15
2022-11-17T01:15:04.875Z,12.57
2022-11-17T01:17:31.569Z,9.25
2022-11-17T01:19:58.192Z,10.68
2022-11-17T01:22:24.916Z,10.07
2022-11-17T01:24:51.567Z,11.82
2022-11-17T01:27:18.241Z,15.10
2022-11-17T01:29:44.854Z,12.77
2022-11-17T01:32:11.536Z,14.25
2022-11-17T01:34:38.206Z,12.45
2022-11-17T01:37:20.080Z,12.30
2022-11-17T01:39:50.682Z,11.25
2022-11-17T01:42:21.681Z,10.52
2022-11-17T01:45:04.147Z,11.98
2022-11-17T01:47:42.941Z,9.45
2022-11-17T01:50:21.937Z,8.88
2022-11-17T01:52:50.509Z,9.73
2022-11-17T01:55:19.829Z,10.90
2022-11-17T01:58:01.024Z,10.35
2022-11-17T02:00:28.480Z,8.90
2022-11-17T02:02:56.037Z,10.55
2022-11-17T02:05:28.044Z,10.32
2022-11-17T02:07:56.830Z,9.70
2022-11-17T02:10:23.753Z,12.45
2022-11-17T02:12:50.784Z,11.80
2022-11-17T02:15:17.528Z,9.98
2022-11-17T02:17:44.453Z,11.05
2022-11-17T02:20:17.893Z,11.75
2022-11-17T02:23:04.929Z,10.07
2022-11-17T02:25:43.578Z,14.30
2022-11-17T02:28:22.460Z,10.68
2022-11-17T02:31:25.518Z,11.70
2022-11-17T02:33:55.829Z,11.57
2022-11-17T02:36:41.492Z,10.95
2022-11-17T02:39:23.150Z,11.50
2022-11-17T02:42:11.437Z,10.83
2022-11-17T02:44:51.035Z,10.13
2022-11-17T02:47:24.070Z,17.98
2022-11-17T02:49:55.647Z,8.98
2022-11-17T02:52:23.346Z,11.47
2022-11-17T02:54:50.006Z,10.38
2022-11-17T02:57:29.843Z,10.25
2022-11-17T02:59:59.551Z,11.95
2022-11-17T03:02:40.227Z,13.27
2022-11-17T03:05:18.362Z,13.85
2022-11-17T03:07:53.986Z,13.60
2022-11-17T03:10:27.690Z,11.00
2022-11-17T03:13:06.202Z,11.95
2022-11-17T03:15:43.924Z,10.85
2022-11-17T03:18:13.483Z,10.85
2022-11-17T03:20:55.093Z,10.48
2022-11-17T03:23:50.486Z,9.47
2022-11-17T03:26:26.738Z,9.63
2022-11-17T03:28:55.602Z,11.73
2022-11-17T03:31:26.312Z,12.57
2022-11-17T03:33:53.955Z,13.70
2022-11-17T03:36:25.932Z,24.63
2022-11-17T03:39:06.365Z,13.50
2022-11-17T03:41:39.423Z,10.20
2022-11-17T03:44:06.881Z,9.57
2022-11-17T03:46:37.043Z,8.90
2022-11-17T03:49:23.536Z,9.60
2022-11-17T03:51:50.700Z,11.07
2022-11-17T03:54:17.621Z,10.25
2022-11-17T03:57:02.801Z,11.20
2022-11-17T03:59:43.259Z,13.43
2022-11-17T04:02:20.330Z,15.07
2022-11-17T04:05:05.575Z,14.63
2022-11-17T04:07:43.944Z,12.35
2022-11-17T04:10:16.485Z,9.90
2022-11-17T04:13:02.402Z,9.70
2022-11-17T04:15:48.101Z,7.93
2022-11-17T04:18:15.272Z,11.38
2022-11-17T04:20:42.570Z,10.75
2022-11-17T04:23:14.366Z,8.18
2022-11-17T04:26:03.173Z,11.00
2022-11-17T04:28:38.445Z,8.30
2022-11-17T04:31:15.725Z,10.07
2022-11-17T04:33:43.530Z,8.75
2022-11-17T04:36:12.195Z,8.32
2022-11-17T04:38:48.096Z,7.55
2022-11-17T04:41:34.787Z,9.00
2022-11-17T04:44:02.228Z,7.70
2022-11-17T04:46:31.191Z,7.43
2022-11-17T04:48:58.987Z,10.13
2022-11-17T04:51:26.730Z,11.13
2022-11-17T04:53:53.803Z,8.93
2022-11-17T04:56:21.700Z,9.77
2022-11-17T04:58:48.905Z,8.10
2022-11-17T05:01:17.408Z,8.13
2022-11-17T05:03:47.031Z,8.38
2022-11-17T05:06:19.954Z,8.07
2022-11-17T05:08:46.998Z,7.22
2022-11-17T05:11:34.285Z,7.85
2022-11-17T05:14:01.604Z,7.85
2022-11-17T05:16:47.362Z,8.20
2022-11-17T05:19:18.087Z,6.00
2022-11-17T05:21:45.205Z,7.93
2022-11-17T05:24:14.319Z,10.43
2022-11-17T05:26:43.172Z,9.75
2022-11-17T05:29:11.441Z,8.70
2022-11-17T05:31:38.420Z,8.65
2022-11-17T05:34:07.260Z,11.45
2022-11-17T05:36:34.577Z,11.65
2022-11-17T05:39:01.301Z,21.40
2022-11-17T05:41:28.924Z,11.32
2022-11-17T05:43:56.487Z,28.75
2022-11-17T05:46:24.059Z,13.60
2022-11-17T05:48:51.720Z,9.55
2022-11-17T05:51:20.822Z,11.68
2022-11-17T05:53:48.107Z,17.33
2022-11-17T05:56:28.428Z,17.42
2022-11-17T05:59:10.861Z,9.77
2022-11-17T06:01:42.482Z,15.13
2022-11-17T06:04:10.141Z,13.77
2022-11-17T06:06:37.764Z,12.02
2022-11-17T06:09:04.857Z,11.70
2022-11-17T06:11:31.622Z,11.70
2022-11-17T06:13:58.321Z,10.75
2022-11-17T06:16:29.812Z,11.73
2022-11-17T06:19:05.140Z,11.23
2022-11-17T06:22:04.609Z,13.32
2022-11-17T06:24:20.771Z,11.77
2022-11-17T06:26:47.575Z,13.15
2022-11-17T06:29:15.396Z,13.73
2022-11-17T06:31:44.232Z,17.58
2022-11-17T06:34:11.457Z,17.05
2022-11-17T06:36:38.159Z,11.98
2022-11-17T06:39:04.964Z,11.43
2022-11-17T06:41:31.616Z,12.57
2022-11-17T06:43:58.285Z,10.48
2022-11-17T06:46:24.949Z,9.23
2022-11-17T06:48:54.506Z,8.15
2022-11-17T06:51:21.129Z,7.65
2022-11-17T06:53:47.808Z,7.07
2022-11-17T06:56:17.090Z,6.13
2022-11-17T06:58:43.856Z,6.93
2022-11-17T07:01:13.569Z,7.97
2022-11-17T07:03:43.038Z,6.03
2022-11-17T07:06:10.973Z,6.15
2022-11-17T07:08:38.525Z,6.45
2022-11-17T07:11:16.619Z,7.05
2022-11-17T07:13:43.533Z,5.53
2022-11-17T07:16:21.828Z,4.78
2022-11-17T07:18:50.893Z,5.40
2022-11-17T07:21:18.105Z,4.22
2022-11-17T07:23:45.921Z,5.43
2022-11-17T07:26:12.946Z,4.40
2022-11-17T07:28:39.681Z,6.15
2022-11-17T07:31:08.716Z,5.60
2022-11-17T07:33:36.660Z,6.65
2022-11-17T07:36:09.790Z,5.55
2022-11-17T07:38:38.370Z,4.88
2022-11-17T07:41:06.763Z,6.38
2022-11-17T07:43:35.008Z,42.97
2022-11-17T07:46:11.493Z,35.60
2022-11-17T07:48:38.786Z,9.15
2022-11-17T07:51:06.062Z,7.85
2022-11-17T07:53:35.165Z,11.60
2022-11-17T07:56:11.067Z,6.10
2022-11-17T07:58:38.942Z,6.45
2022-11-17T08:01:06.621Z,5.72
2022-11-17T08:03:33.519Z,5.22
2022-11-17T08:06:07.568Z,5.70
2022-11-17T08:08:35.051Z,7.28
2022-11-17T08:11:03.747Z,5.68
2022-11-17T08:13:30.549Z,6.32
2022-11-17T08:15:59.142Z,6.53
2022-11-17T08:18:25.978Z,6.18
2022-11-17T08:20:52.728Z,7.60
2022-11-17T08:23:19.528Z,8.32
2022-11-17T08:25:46.264Z,9.32
2022-11-17T08:28:12.925Z,7.55
2022-11-17T08:30:39.672Z,8.00
2022-11-17T08:33:06.412Z,9.68
2022-11-17T08:35:37.405Z,5.78
2022-11-17T08:38:04.536Z,7.07
2022-11-17T08:40:31.324Z,7.45
2022-11-17T08:43:01.529Z,5.97
2022-11-17T08:45:28.785Z,7.07
2022-11-17T08:47:58.507Z,5.78
2022-11-17T08:50:25.402Z,6.55
2022-11-17T08:52:52.917Z,6.97
2022-11-17T08:55:19.694Z,7.93
2022-11-17T08:57:46.582Z,6.32
2022-11-17T09:00:13.780Z,6.55
2022-11-17T09:02:40.615Z,5.75
2022-11-17T09:05:07.751Z,6.97
2022-11-17T09:07:35.732Z,6.18
2022-11-17T09:10:04.576Z,5.38
2022-11-17T09:12:32.431Z,4.45
2022-11-17T09:14:59.085Z,4.50
2022-11-17T09:17:25.818Z,4.43
2022-11-17T09:19:52.477Z,3.45
2022-11-17T09:22:19.957Z,2.67
2022-11-17T09:24:46.617Z,3.33
2022-11-17T09:27:13.972Z,1.92
2022-11-17T09:29:40.617Z,3.88
2022-11-17T09:32:07.441Z,2.70
2022-11-17T09:34:34.151Z,3.08
2022-11-17T09:37:00.874Z,1.85
2022-11-17T09:39:27.605Z,3.03
2022-11-17T09:41:57.343Z,2.58
2022-11-17T09:44:42.044Z,2.60
2022-11-17T09:47:33.129Z,3.05
2022-11-17T09:50:05.773Z,1.40
2022-11-17T09:52:59.834Z,1.70
2022-11-17T09:55:34.170Z,2.58
2022-11-17T09:58:18.545Z,2.17
2022-11-17T10:00:48.986Z,1.48
2022-11-17T10:03:18.364Z,1.00
2022-11-17T10:05:45.322Z,0.45
2022-11-17T10:08:17.722Z,0.55
2022-11-17T10:10:51.785Z,2.03
2022-11-17T10:13:29.420Z,1.05
2022-11-17T10:16:05.702Z,0.38
2022-11-17T10:18:38.049Z,0.63
2022-11-17T10:21:06.833Z,0.30
2022-11-17T10:23:58.380Z,1.90
2022-11-17T10:26:26.001Z,1.35
2022-11-17T10:29:08.763Z,1.75
2022-11-17T10:31:46.480Z,2.55
2022-11-17T10:34:41.626Z,1.23
2022-11-17T10:37:14.277Z,1.65
2022-11-17T10:39:42.965Z,0.45
2022-11-17T10:42:27.846Z,0.57
2022-11-17T10:44:59.553Z,0.43
2022-11-17T10:47:37.629Z,2.05
2022-11-17T10:50:25.725Z,1.63
2022-11-17T10:52:54.773Z,0.65
2022-11-17T10:55:26.327Z,0.50
2022-11-17T10:58:01.277Z,1.80
2022-11-17T11:00:32.658Z,2.42
2022-11-17T11:03:04.815Z,0.87
2022-11-17T11:05:31.534Z,0.57
2022-11-17T11:08:18.426Z,1.55
2022-11-17T11:10:49.482Z,0.98
2022-11-17T11:13:25.986Z,2.65
2022-11-17T11:15:53.602Z,2.58
2022-11-17T11:18:21.101Z,1.98
2022-11-17T11:21:07.688Z,2.13
2022-11-17T11:23:56.872Z,2.25
2022-11-17T11:26:36.444Z,3.33
2022-11-17T11:29:29.131Z,3.65
2022-11-17T11:34:49.111Z,3.55
2022-11-17T11:37:16.880Z,2.95
2022-11-17T11:40:01.675Z,4.25
2022-11-17T11:42:52.817Z,3.35
2022-11-17T11:45:24.671Z,4.43
2022-11-17T11:48:32.386Z,2.92
2022-11-17T11:51:11.451Z,3.47
2022-11-17T11:54:29.116Z,3.53
2022-11-17T11:56:56.208Z,4.97
2022-11-17T11:59:38.504Z,3.28
2022-11-17T12:02:11.319Z,5.35
2022-11-17T12:04:48.949Z,5.78
2022-11-17T12:07:38.825Z,3.67
2022-11-17T12:10:36.499Z,5.65
2022-11-17T12:13:05.250Z,4.20
2022-11-17T12:15:34.349Z,4.82
2022-11-17T12:18:02.711Z,2.65
2022-11-17T12:20:38.675Z,4.20
2022-11-17T12:23:26.453Z,5.45
2022-11-17T12:25:57.017Z,4.75
2022-11-17T12:28:43.897Z,8.60
2022-11-17T12:31:25.781Z,6.30
2022-11-17T12:33:52.387Z,6.65
2022-11-17T12:36:30.542Z,5.88
2022-11-17T12:39:00.068Z,3.10
2022-11-17T12:41:48.400Z,8.68
2022-11-17T12:44:39.406Z,6.88
2022-11-17T12:47:16.848Z,4.03
2022-11-17T12:50:09.608Z,5.10
2022-11-17T12:52:46.516Z,4.43
2022-11-17T12:55:17.658Z,5.30
2022-11-17T12:57:47.987Z,9.75
2022-11-17T13:00:20.745Z,5.55
2022-11-17T13:03:09.448Z,5.07
2022-11-17T13:05:37.084Z,7.95
2022-11-17T13:08:22.477Z,3.00
2022-11-17T13:10:49.537Z,2.88
2022-11-17T13:13:24.217Z,3.47
2022-11-17T13:15:53.569Z,4.93
2022-11-17T13:18:41.277Z,6.05
2022-11-17T13:21:29.943Z,6.18
2022-11-17T13:23:58.549Z,4.13
2022-11-17T13:26:26.718Z,2.33
2022-11-17T13:29:13.327Z,3.90
2022-11-17T13:31:40.212Z,3.20
2022-11-17T13:34:09.820Z,5.72
2022-11-17T13:36:36.944Z,4.13
2022-11-17T13:39:03.766Z,7.22
2022-11-17T13:41:37.246Z,5.30
2022-11-17T13:44:06.313Z,7.20
2022-11-17T13:46:35.105Z,3.42
2022-11-17T13:49:01.839Z,4.18
2022-11-17T13:51:39.055Z,4.55
2022-11-17T13:54:12.202Z,6.43
2022-11-17T13:56:51.645Z,4.40
2022-11-17T13:59:18.316Z,3.88
2022-11-17T14:01:45.434Z,3.85
2022-11-17T14:04:23.303Z,7.75
2022-11-17T14:06:59.592Z,3.42
2022-11-17T14:09:28.829Z,5.13
2022-11-17T14:11:55.846Z,4.40
2022-11-17T14:14:31.555Z,5.65
2022-11-17T14:16:59.318Z,3.33
2022-11-17T14:19:31.840Z,5.07
2022-11-17T14:22:29.521Z,7.60
2022-11-17T14:24:58.234Z,9.20
2022-11-17T14:27:27.587Z,3.85
2022-11-17T14:29:54.316Z,5.07
2022-11-17T14:32:21.369Z,9.85
2022-11-17T14:34:48.007Z,5.28
2022-11-17T14:37:14.730Z,3.55
2022-11-17T14:39:41.563Z,7.78
2022-11-17T14:42:09.090Z,6.65
2022-11-17T14:44:35.728Z,7.93
2022-11-17T14:47:02.581Z,5.93
2022-11-17T14:49:29.286Z,9.10
2022-11-17T14:51:59.122Z,6.93
2022-11-17T14:54:26.351Z,7.20
2022-11-17T14:56:53.024Z,7.78
2022-11-17T14:59:19.887Z,5.15
2022-11-17T15:01:46.604Z,6.82
2022-11-17T15:04:48.145Z,7.15
2022-11-17T15:07:03.289Z,6.00
2022-11-17T15:09:30.113Z,4.88
2022-11-17T15:11:56.795Z,6.63
2022-11-17T15:14:23.472Z,6.13
2022-11-17T15:16:50.241Z,7.53
2022-11-17T15:19:17.029Z,4.95
2022-11-17T15:21:43.751Z,9.20
2022-11-17T15:24:10.474Z,4.95
2022-11-17T15:26:37.250Z,4.90
2022-11-17T15:29:04.410Z,6.00
2022-11-17T15:31:31.277Z,7.63
2022-11-17T15:33:58.082Z,11.10
2022-11-17T15:36:24.828Z,12.23
2022-11-17T15:38:53.324Z,11.25
2022-11-17T15:41:20.060Z,10.95
2022-11-17T15:43:46.756Z,12.48
2022-11-17T15:46:15.913Z,7.68
2022-11-17T15:48:44.603Z,13.73
2022-11-17T15:51:16.914Z,7.72
2022-11-17T15:53:45.135Z,10.93
2022-11-17T15:56:17.452Z,8.18
2022-11-17T16:01:31.265Z,13.95
2022-11-17T16:04:01.040Z,12.05
2022-11-17T16:06:28.910Z,15.05
2022-11-17T16:08:55.689Z,15.10
2022-11-17T16:11:22.617Z,11.25
2022-11-17T16:13:52.667Z,12.18
2022-11-17T16:16:19.533Z,13.15
2022-11-17T16:18:46.271Z,6.15
2022-11-17T16:21:14.115Z,10.45
2022-11-17T16:23:46.048Z,14.40
2022-11-17T16:26:14.692Z,12.55
2022-11-17T16:28:41.922Z,10.27
2022-11-17T16:31:22.865Z,13.25
2022-11-17T16:33:51.915Z,14.73
2022-11-17T16:36:19.948Z,10.13
2022-11-17T16:39:01.032Z,10.57
2022-11-17T16:41:31.782Z,5.40
2022-11-17T16:43:58.798Z,11.57
2022-11-17T16:46:30.740Z,7.53
2022-11-17T16:49:07.243Z,9.82
2022-11-17T16:51:34.534Z,9.05
2022-11-17T16:54:04.240Z,8.85
2022-11-17T16:56:31.640Z,7.60
2022-11-17T16:58:58.845Z,5.88
2022-11-17T17:01:28.659Z,5.32
2022-11-17T17:03:57.001Z,6.65
2022-11-17T17:06:24.323Z,7.38
2022-11-17T17:08:56.190Z,7.00
2022-11-17T17:11:23.154Z,6.25
2022-11-17T17:13:50.265Z,4.78
2022-11-17T17:16:19.117Z,7.03
2022-11-17T17:18:46.112Z,5.95
2022-11-17T17:21:18.461Z,6.57
2022-11-17T17:26:18.399Z,6.03
2022-11-17T17:28:47.284Z,7.05
2022-11-17T17:31:21.590Z,8.63
2022-11-17T17:33:50.501Z,7.90
2022-11-17T17:36:19.766Z,4.25
2022-11-17T17:38:53.284Z,5.93
2022-11-17T17:41:22.488Z,8.05
2022-11-17T17:43:55.683Z,4.53
2022-11-17T17:46:22.556Z,5.53
2022-11-17T17:48:49.245Z,6.38
2022-11-17T17:51:19.248Z,7.57
2022-11-17T17:53:49.991Z,6.35
2022-11-17T17:56:19.160Z,8.65
2022-11-17T17:58:48.700Z,7.38
2022-11-17T18:01:27.062Z,12.15
2022-11-17T18:04:01.128Z,9.65
2022-11-17T18:06:28.514Z,8.55
2022-11-17T18:08:55.240Z,11.25
2022-11-17T18:11:22.372Z,10.40
2022-11-17T18:13:51.211Z,5.90
2022-11-17T18:16:21.578Z,5.85
2022-11-17T18:18:49.231Z,7.93
2022-11-17T18:21:18.818Z,8.05
2022-11-17T18:23:45.687Z,12.43
2022-11-17T18:26:18.029Z,15.88
2022-11-17T18:31:16.302Z,9.23
2022-11-17T18:33:45.324Z,9.75
2022-11-17T18:36:12.319Z,8.50
2022-11-17T18:38:39.056Z,8.15
2022-11-17T18:41:11.564Z,7.28
2022-11-17T18:43:38.789Z,7.57
2022-11-17T18:46:08.613Z,5.60
2022-11-17T18:48:37.479Z,4.15
2022-11-17T18:51:22.583Z,7.00
2022-11-17T18:53:51.576Z,8.20
2022-11-17T18:56:24.123Z,6.32
2022-11-17T18:58:51.060Z,5.72
2022-11-17T19:01:19.932Z,4.88
2022-11-17T19:03:49.796Z,5.25
2022-11-17T19:06:18.156Z,6.15
2022-11-17T19:08:45.908Z,6.40
2022-11-17T19:11:13.339Z,6.70
2022-11-17T19:13:41.845Z,7.78
2022-11-17T19:16:16.940Z,5.35
2022-11-17T19:18:45.040Z,4.72
2022-11-17T19:21:14.454Z,1.67
2022-11-17T19:23:47.980Z,6.30
2022-11-17T19:26:31.887Z,6.53
2022-11-17T19:29:04.061Z,5.93
2022-11-17T19:31:31.451Z,5.88
2022-11-17T19:33:58.736Z,4.35
2022-11-17T19:36:29.343Z,4.88
2022-11-17T19:38:57.578Z,7.35
2022-11-17T19:41:30.136Z,5.65
2022-11-17T19:43:59.248Z,7.93
2022-11-17T19:46:27.760Z,5.45
2022-11-17T19:48:55.733Z,2.95
2022-11-17T19:51:24.958Z,3.22
2022-11-17T19:53:54.125Z,3.40
2022-11-17T19:56:22.135Z,4.13
2022-11-17T19:58:49.809Z,3.22
2022-11-17T20:01:19.574Z,3.22
2022-11-17T20:03:47.298Z,4.30
2022-11-17T20:06:16.832Z,3.42
2022-11-17T20:08:44.335Z,2.47
2022-11-17T20:11:17.102Z,3.13
2022-11-17T20:13:44.305Z,2.80
2022-11-17T20:16:16.448Z,1.63
2022-11-17T20:18:44.411Z,2.63
2022-11-17T20:21:13.984Z,1.45
2022-11-17T20:23:41.034Z,2.72
2022-11-17T20:26:13.492Z,1.25
2022-11-17T20:28:40.717Z,2.47
2022-11-17T20:31:12.923Z,1.15
2022-11-17T20:33:40.729Z,2.17
2022-11-17T20:36:09.323Z,1.58
2022-11-17T20:38:36.171Z,1.98
2022-11-17T20:41:04.146Z,3.40
2022-11-17T20:43:31.469Z,1.35
2022-11-17T20:45:58.576Z,1.83
2022-11-17T20:48:26.445Z,3.88
2022-11-17T20:50:57.293Z,2.72
2022-11-17T20:53:24.354Z,2.70
2022-11-17T20:55:51.144Z,2.88
2022-11-17T20:58:17.837Z,1.95
2022-11-17T21:00:44.566Z,4.20
2022-11-17T21:03:11.261Z,3.40
2022-11-17T21:05:37.911Z,2.65
2022-11-17T21:08:04.953Z,3.35
2022-11-17T21:10:31.870Z,2.55
2022-11-17T21:12:59.203Z,3.80
2022-11-17T21:15:26.118Z,4.15
2022-11-17T21:18:11.312Z,6.13
2022-11-17T21:20:38.000Z,5.45
2022-11-17T21:23:04.694Z,4.10
2022-11-17T21:25:32.091Z,5.35
2022-11-17T21:27:58.753Z,3.70
2022-11-17T21:30:25.417Z,3.33
2022-11-17T21:32:52.076Z,1.63
2022-11-17T21:35:19.067Z,2.95
2022-11-17T21:37:45.832Z,1.88
2022-11-17T21:40:12.589Z,2.13
2022-11-17T21:42:39.339Z,2.08
2022-11-17T21:45:06.483Z,2.33
2022-11-17T21:47:33.162Z,1.65
2022-11-17T21:49:59.867Z,1.73
2022-11-17T21:52:26.541Z,1.42
2022-11-17T21:54:53.203Z,3.80
2022-11-17T21:57:19.951Z,2.20
2022-11-17T21:59:46.754Z,3.67
2022-11-17T22:02:13.576Z,1.88
2022-11-17T22:04:40.258Z,1.23
2022-11-17T22:07:07.032Z,2.03
2022-11-17T22:09:34.216Z,1.13
2022-11-17T22:12:01.211Z,1.17
2022-11-17T22:14:28.032Z,1.50
2022-11-17T22:16:56.442Z,0.50
2022-11-17T22:19:26.964Z,0.63
2022-11-17T22:21:54.460Z,2.78
2022-11-17T22:24:21.509Z,0.60
2022-11-17T22:26:48.792Z,0.77
2022-11-17T22:29:18.585Z,1.85
2022-11-17T22:31:48.609Z,1.55
2022-11-17T22:34:16.035Z,1.75
2022-11-17T22:36:43.095Z,1.48
2022-11-17T22:39:09.862Z,1.20
2022-11-17T22:41:37.086Z,1.20
2022-11-17T22:44:05.639Z,1.92
2022-11-17T22:46:32.513Z,1.73
2022-11-17T22:48:59.654Z,1.20
2022-11-17T22:51:45.130Z,0.68
2022-11-17T22:54:12.042Z,1.55
2022-11-17T22:56:39.602Z,0.40
2022-11-17T22:59:06.619Z,0.93
2022-11-17T23:01:33.902Z,2.63
2022-11-17T23:04:00.664Z,0.95
2022-11-17T23:06:27.507Z,1.10
2022-11-17T23:08:55.648Z,0.80
2022-11-17T23:11:36.503Z,0.90
2022-11-17T23:14:05.433Z,1.20
2022-11-17T23:16:33.204Z,0.73
2022-11-17T23:19:00.144Z,0.95
2022-11-17T23:21:27.629Z,0.82
2022-11-17T23:23:54.310Z,0.88
2022-11-17T23:26:21.261Z,0.52
2022-11-17T23:28:48.349Z,0.90
2022-11-17T23:31:16.957Z,0.73
2022-11-17T23:33:46.842Z,1.00
2022-11-17T23:36:16.647Z,1.02
2022-11-17T23:38:43.731Z,1.40
2022-11-17T23:41:13.369Z,0.50
2022-11-17T23:43:41.030Z,0.52
2022-11-17T23:46:11.464Z,1.17
2022-11-17T23:48:38.687Z,1.30
2022-11-17T23:51:11.078Z,0.73
2022-11-17T23:56:06.577Z,2.45
2022-11-17T23:58:33.507Z,0.50
